Terminal Aerodrome Forecast
Issued by NWS Binghamton, NY

Home | Current Version | Previous Version | Text Only | Print | Product List | Glossary On
Versions: 1 2 3 4 5 6 7 8 9 10 11 12 13 14 15 16
000
FTUS41 KBGM 300534
TAFBGM
TAF
KBGM 300534Z 3006/3106 VRB04KT P6SM SCT060 BKN100
      TEMPO 3006/3010 6SM -SHRA BKN060
     FM301400 22010KT P6SM SCT050 BKN150 PROB30 3018/3021 TSRA
      BKN050CB
     FM302100 28007KT P6SM SCT100 BKN250
     FM310100 33005KT P6SM SCT250=

USA.gov is the U.S. government's official web portal to all federal, state and local government web resources and services.